sensor_id;sensor_type;location;lat;lon;timestamp;pressure;altitude;pressure_sealevel;temperature;humidity
25722;BME280;13578;53.450;15.496;2023-07-31T00:00:45;99244.66;;;15.22;100.00
25722;BME280;13578;53.450;15.496;2023-07-31T00:03:46;99237.03;;;15.24;100.00
25722;BME280;13578;53.450;15.496;2023-07-31T00:06:47;99243.25;;;15.26;100.00
25722;BME280;13578;53.450;15.496;2023-07-31T00:09:48;99252.03;;;15.30;100.00
25722;BME280;13578;53.450;15.496;2023-07-31T00:12:48;99248.09;;;15.24;100.00
25722;BME280;13578;53.450;15.496;2023-07-31T00:15:49;99250.38;;;15.20;100.00
25722;BME280;13578;53.450;15.496;2023-07-31T00:18:49;99238.09;;;15.23;100.00
25722;BME280;13578;53.450;15.496;2023-07-31T00:21:50;99229.66;;;15.16;100.00
25722;BME280;13578;53.450;15.496;2023-07-31T00:24:51;99236.06;;;15.17;100.00
25722;BME280;13578;53.450;15.496;2023-07-31T00:27:51;99228.13;;;15.14;100.00
25722;BME280;13578;53.450;15.496;2023-07-31T00:30:52;99218.47;;;15.09;100.00
25722;BME280;13578;53.450;15.496;2023-07-31T00:33:53;99236.09;;;15.08;100.00
25722;BME280;13578;53.450;15.496;2023-07-31T00:36:53;99239.06;;;15.07;100.00
25722;BME280;13578;53.450;15.496;2023-07-31T00:39:54;99226.47;;;15.04;100.00
25722;BME280;13578;53.450;15.496;2023-07-31T00:42:54;99218.88;;;14.98;100.00
25722;BME280;13578;53.450;15.496;2023-07-31T00:45:55;99229.06;;;14.98;100.00
25722;BME280;13578;53.450;15.496;2023-07-31T00:48:57;99238.44;;;14.88;100.00
25722;BME280;13578;53.450;15.496;2023-07-31T00:51:57;99212.06;;;14.77;100.00
25722;BME280;13578;53.450;15.496;2023-07-31T00:54:58;99221.28;;;14.70;100.00
25722;BME280;13578;53.450;15.496;2023-07-31T00:57:59;99237.81;;;14.78;100.00
25722;BME280;13578;53.450;15.496;2023-07-31T01:01:00;99235.41;;;14.75;100.00
25722;BME280;13578;53.450;15.496;2023-07-31T01:04:00;99232.13;;;14.71;100.00
25722;BME280;13578;53.450;15.496;2023-07-31T01:07:14;99227.00;;;14.68;100.00
25722;BME280;13578;53.450;15.496;2023-07-31T01:10:27;99230.78;;;14.67;100.00
25722;BME280;13578;53.450;15.496;2023-07-31T01:13:30;99230.06;;;14.65;100.00
25722;BME280;13578;53.450;15.496;2023-07-31T01:16:30;99234.38;;;14.68;100.00
25722;BME280;13578;53.450;15.496;2023-07-31T01:19:31;99221.63;;;14.67;100.00
25722;BME280;13578;53.450;15.496;2023-07-31T01:23:23;99217.63;;;14.69;100.00
25722;BME280;13578;53.450;15.496;2023-07-31T01:26:34;99203.16;;;14.67;100.00
25722;BME280;13578;53.450;15.496;2023-07-31T01:29:42;99203.81;;;14.69;100.00
25722;BME280;13578;53.450;15.496;2023-07-31T01:32:46;99204.19;;;14.66;100.00
25722;BME280;13578;53.450;15.496;2023-07-31T01:35:48;99197.97;;;14.64;100.00
25722;BME280;13578;53.450;15.496;2023-07-31T01:38:49;99202.63;;;14.64;100.00
25722;BME280;13578;53.450;15.496;2023-07-31T01:41:51;99207.28;;;14.63;100.00
25722;BME280;13578;53.450;15.496;2023-07-31T01:44:51;99197.47;;;14.60;100.00
25722;BME280;13578;53.450;15.496;2023-07-31T01:47:52;99200.09;;;14.54;100.00
25722;BME280;13578;53.450;15.496;2023-07-31T01:50:52;99205.97;;;14.51;100.00
25722;BME280;13578;53.450;15.496;2023-07-31T01:53:53;99197.34;;;14.54;100.00
25722;BME280;13578;53.450;15.496;2023-07-31T01:56:54;99194.22;;;14.49;100.00
25722;BME280;13578;53.450;15.496;2023-07-31T01:59:54;99190.78;;;14.46;100.00
25722;BME280;13578;53.450;15.496;2023-07-31T02:02:55;99185.47;;;14.37;100.00
25722;BME280;13578;53.450;15.496;2023-07-31T02:05:56;99185.97;;;14.40;100.00
25722;BME280;13578;53.450;15.496;2023-07-31T02:08:57;99191.34;;;14.34;100.00
25722;BME280;13578;53.450;15.496;2023-07-31T02:11:57;99194.28;;;14.32;100.00
25722;BME280;13578;53.450;15.496;2023-07-31T02:14:58;99189.63;;;14.33;100.00
25722;BME280;13578;53.450;15.496;2023-07-31T02:17:59;99197.53;;;14.36;100.00
25722;BME280;13578;53.450;15.496;2023-07-31T02:20:59;99187.22;;;14.29;100.00
25722;BME280;13578;53.450;15.496;2023-07-31T02:24:00;99187.22;;;14.29;100.00
25722;BME280;13578;53.450;15.496;2023-07-31T02:27:00;99183.22;;;14.32;100.00
25722;BME280;13578;53.450;15.496;2023-07-31T02:30:01;99178.28;;;14.27;100.00
25722;BME280;13578;53.450;15.496;2023-07-31T02:33:02;99180.66;;;14.30;100.00
25722;BME280;13578;53.450;15.496;2023-07-31T02:36:02;99173.41;;;14.29;100.00
25722;BME280;13578;53.450;15.496;2023-07-31T02:39:03;99182.56;;;14.30;100.00
25722;BME280;13578;53.450;15.496;2023-07-31T02:42:04;99173.59;;;14.28;100.00
25722;BME280;13578;53.450;15.496;2023-07-31T02:45:05;99170.66;;;14.29;100.00
25722;BME280;13578;53.450;15.496;2023-07-31T02:48:06;99167.75;;;14.23;100.00
25722;BME280;13578;53.450;15.496;2023-07-31T02:51:06;99170.53;;;14.23;100.00
25722;BME280;13578;53.450;15.496;2023-07-31T02:54:07;99173.63;;;14.20;100.00
25722;BME280;13578;53.450;15.496;2023-07-31T02:57:07;99171.91;;;14.19;100.00
25722;BME280;13578;53.450;15.496;2023-07-31T03:00:08;99169.50;;;14.16;100.00
25722;BME280;13578;53.450;15.496;2023-07-31T03:03:09;99167.09;;;14.12;100.00
25722;BME280;13578;53.450;15.496;2023-07-31T03:06:10;99163.31;;;14.13;100.00
25722;BME280;13578;53.450;15.496;2023-07-31T03:09:11;99153.63;;;14.18;100.00
25722;BME280;13578;53.450;15.496;2023-07-31T03:12:11;99158.44;;;14.24;100.00
25722;BME280;13578;53.450;15.496;2023-07-31T03:15:12;99158.06;;;14.27;100.00
25722;BME280;13578;53.450;15.496;2023-07-31T03:18:13;99146.00;;;14.28;100.00
25722;BME280;13578;53.450;15.496;2023-07-31T03:21:14;99149.06;;;14.33;100.00
25722;BME280;13578;53.450;15.496;2023-07-31T03:24:14;99145.09;;;14.36;100.00
25722;BME280;13578;53.450;15.496;2023-07-31T03:27:15;99145.59;;;14.39;100.00
25722;BME280;13578;53.450;15.496;2023-07-31T03:30:16;99141.47;;;14.43;100.00
25722;BME280;13578;53.450;15.496;2023-07-31T03:33:16;99125.91;;;14.51;100.00
25722;BME280;13578;53.450;15.496;2023-07-31T03:36:17;99130.16;;;14.70;100.00
25722;BME280;13578;53.450;15.496;2023-07-31T03:39:18;99149.41;;;15.09;100.00
25722;BME280;13578;53.450;15.496;2023-07-31T03:42:18;99156.38;;;15.44;100.00
25722;BME280;13578;53.450;15.496;2023-07-31T03:45:19;99177.50;;;15.83;100.00
25722;BME280;13578;53.450;15.496;2023-07-31T03:48:20;99183.94;;;16.13;100.00
25722;BME280;13578;53.450;15.496;2023-07-31T03:51:20;99186.69;;;15.98;100.00
25722;BME280;13578;53.450;15.496;2023-07-31T03:54:21;99186.66;;;15.60;100.00
25722;BME280;13578;53.450;15.496;2023-07-31T03:57:22;99179.31;;;15.29;100.00
25722;BME280;13578;53.450;15.496;2023-07-31T04:00:22;99176.53;;;15.06;100.00
25722;BME280;13578;53.450;15.496;2023-07-31T04:03:23;99172.78;;;14.99;100.00
25722;BME280;13578;53.450;15.496;2023-07-31T04:06:23;99166.94;;;14.93;100.00
25722;BME280;13578;53.450;15.496;2023-07-31T04:09:24;99157.78;;;14.93;100.00
25722;BME280;13578;53.450;15.496;2023-07-31T04:12:24;99161.22;;;14.95;100.00
25722;BME280;13578;53.450;15.496;2023-07-31T04:15:25;99159.81;;;14.99;100.00
25722;BME280;13578;53.450;15.496;2023-07-31T04:18:26;99165.38;;;14.91;100.00
25722;BME280;13578;53.450;15.496;2023-07-31T04:21:27;99154.53;;;14.89;100.00
25722;BME280;13578;53.450;15.496;2023-07-31T04:24:27;99154.84;;;14.95;100.00
25722;BME280;13578;53.450;15.496;2023-07-31T04:27:28;99158.97;;;14.99;100.00
25722;BME280;13578;53.450;15.496;2023-07-31T04:30:28;99158.78;;;15.00;100.00
25722;BME280;13578;53.450;15.496;2023-07-31T04:33:29;99163.56;;;15.06;100.00
25722;BME280;13578;53.450;15.496;2023-07-31T04:36:29;99151.13;;;15.11;100.00
25722;BME280;13578;53.450;15.496;2023-07-31T04:39:30;99156.44;;;15.12;100.00
25722;BME280;13578;53.450;15.496;2023-07-31T04:42:31;99157.44;;;15.19;100.00
25722;BME280;13578;53.450;15.496;2023-07-31T04:45:31;99160.34;;;15.26;100.00
25722;BME280;13578;53.450;15.496;2023-07-31T04:48:32;99162.91;;;15.28;100.00
25722;BME280;13578;53.450;15.496;2023-07-31T04:51:33;99165.66;;;15.28;100.00
25722;BME280;13578;53.450;15.496;2023-07-31T04:54:33;99161.69;;;15.30;100.00
25722;BME280;13578;53.450;15.496;2023-07-31T04:57:34;99168.19;;;15.37;100.00
25722;BME280;13578;53.450;15.496;2023-07-31T05:00:35;99160.44;;;15.33;100.00
25722;BME280;13578;53.450;15.496;2023-07-31T05:03:35;99158.91;;;15.30;100.00
25722;BME280;13578;53.450;15.496;2023-07-31T05:06:36;99164.81;;;15.27;100.00
25722;BME280;13578;53.450;15.496;2023-07-31T05:09:37;99164.44;;;15.30;100.00
25722;BME280;13578;53.450;15.496;2023-07-31T05:12:39;99154.41;;;15.29;100.00
25722;BME280;13578;53.450;15.496;2023-07-31T05:15:41;99159.81;;;15.46;100.00
25722;BME280;13578;53.450;15.496;2023-07-31T05:18:42;99159.13;;;15.44;100.00
25722;BME280;13578;53.450;15.496;2023-07-31T05:21:42;99156.31;;;15.52;100.00
25722;BME280;13578;53.450;15.496;2023-07-31T05:24:43;99155.00;;;15.63;100.00
25722;BME280;13578;53.450;15.496;2023-07-31T05:27:43;99144.72;;;15.71;100.00
25722;BME280;13578;53.450;15.496;2023-07-31T05:30:44;99156.38;;;15.82;100.00
25722;BME280;13578;53.450;15.496;2023-07-31T05:33:45;99158.63;;;15.86;100.00
25722;BME280;13578;53.450;15.496;2023-07-31T05:36:45;99153.56;;;15.90;100.00
25722;BME280;13578;53.450;15.496;2023-07-31T05:39:46;99151.97;;;15.96;100.00
25722;BME280;13578;53.450;15.496;2023-07-31T05:42:46;99155.56;;;15.96;100.00
25722;BME280;13578;53.450;15.496;2023-07-31T05:45:47;99154.06;;;15.94;100.00
25722;BME280;13578;53.450;15.496;2023-07-31T05:48:48;99152.81;;;15.96;100.00
25722;BME280;13578;53.450;15.496;2023-07-31T05:51:48;99157.97;;;15.99;100.00
25722;BME280;13578;53.450;15.496;2023-07-31T05:54:49;99148.03;;;15.90;100.00
25722;BME280;13578;53.450;15.496;2023-07-31T05:57:50;99151.97;;;15.96;100.00
25722;BME280;13578;53.450;15.496;2023-07-31T06:00:51;99143.75;;;15.87;100.00
25722;BME280;13578;53.450;15.496;2023-07-31T06:03:52;99144.22;;;15.91;100.00
25722;BME280;13578;53.450;15.496;2023-07-31T06:06:53;99145.00;;;15.85;100.00
25722;BME280;13578;53.450;15.496;2023-07-31T06:09:53;99142.97;;;15.94;100.00
25722;BME280;13578;53.450;15.496;2023-07-31T06:12:55;99140.91;;;15.96;100.00
25722;BME280;13578;53.450;15.496;2023-07-31T06:15:55;99134.19;;;16.05;100.00
25722;BME280;13578;53.450;15.496;2023-07-31T06:18:56;99140.81;;;16.19;100.00
25722;BME280;13578;53.450;15.496;2023-07-31T06:21:57;99136.59;;;16.23;100.00
25722;BME280;13578;53.450;15.496;2023-07-31T06:24:57;99143.06;;;16.30;100.00
25722;BME280;13578;53.450;15.496;2023-07-31T06:27:58;99141.38;;;16.29;100.00
25722;BME280;13578;53.450;15.496;2023-07-31T06:30:59;99142.34;;;16.37;100.00
25722;BME280;13578;53.450;15.496;2023-07-31T06:33:59;99147.56;;;16.31;100.00
25722;BME280;13578;53.450;15.496;2023-07-31T06:37:00;99137.25;;;16.25;100.00
25722;BME280;13578;53.450;15.496;2023-07-31T06:40:01;99147.19;;;16.34;100.00
25722;BME280;13578;53.450;15.496;2023-07-31T06:43:02;99149.38;;;16.39;100.00
25722;BME280;13578;53.450;15.496;2023-07-31T06:46:08;99137.75;;;16.44;100.00
25722;BME280;13578;53.450;15.496;2023-07-31T06:49:09;99142.78;;;16.55;100.00
25722;BME280;13578;53.450;15.496;2023-07-31T06:52:09;99139.63;;;16.58;100.00
25722;BME280;13578;53.450;15.496;2023-07-31T06:55:20;99141.53;;;16.58;100.00
25722;BME280;13578;53.450;15.496;2023-07-31T06:58:22;99130.66;;;16.56;100.00
25722;BME280;13578;53.450;15.496;2023-07-31T07:01:22;99133.31;;;16.64;100.00
25722;BME280;13578;53.450;15.496;2023-07-31T07:04:23;99129.75;;;16.71;100.00
25722;BME280;13578;53.450;15.496;2023-07-31T07:07:24;99139.94;;;16.85;100.00
25722;BME280;13578;53.450;15.496;2023-07-31T07:10:24;99138.97;;;16.93;100.00
25722;BME280;13578;53.450;15.496;2023-07-31T07:13:25;99142.63;;;16.93;100.00
25722;BME280;13578;53.450;15.496;2023-07-31T07:16:25;99135.03;;;17.02;100.00
25722;BME280;13578;53.450;15.496;2023-07-31T07:19:26;99139.41;;;17.11;100.00
25722;BME280;13578;53.450;15.496;2023-07-31T07:22:27;99133.28;;;17.16;100.00
25722;BME280;13578;53.450;15.496;2023-07-31T07:25:28;99134.53;;;17.35;100.00
25722;BME280;13578;53.450;15.496;2023-07-31T07:28:28;99142.31;;;17.46;100.00
25722;BME280;13578;53.450;15.496;2023-07-31T07:31:29;99146.13;;;17.45;100.00
25722;BME280;13578;53.450;15.496;2023-07-31T07:34:30;99142.44;;;17.38;100.00
25722;BME280;13578;53.450;15.496;2023-07-31T07:37:30;99137.03;;;17.30;100.00
25722;BME280;13578;53.450;15.496;2023-07-31T07:40:31;99138.75;;;17.31;100.00
25722;BME280;13578;53.450;15.496;2023-07-31T07:43:31;99145.28;;;17.45;100.00
25722;BME280;13578;53.450;15.496;2023-07-31T07:46:32;99141.44;;;17.68;100.00
25722;BME280;13578;53.450;15.496;2023-07-31T07:49:34;99136.13;;;17.73;100.00
25722;BME280;13578;53.450;15.496;2023-07-31T07:52:35;99141.44;;;17.96;100.00
25722;BME280;13578;53.450;15.496;2023-07-31T07:55:35;99128.59;;;18.23;100.00
25722;BME280;13578;53.450;15.496;2023-07-31T07:58:36;99143.47;;;18.09;100.00
25722;BME280;13578;53.450;15.496;2023-07-31T08:01:36;99134.22;;;17.95;100.00
25722;BME280;13578;53.450;15.496;2023-07-31T08:04:37;99133.00;;;17.83;100.00
25722;BME280;13578;53.450;15.496;2023-07-31T08:07:38;99130.59;;;17.73;100.00
25722;BME280;13578;53.450;15.496;2023-07-31T08:10:38;99130.66;;;17.80;100.00
25722;BME280;13578;53.450;15.496;2023-07-31T08:13:39;99121.41;;;17.72;100.00
25722;BME280;13578;53.450;15.496;2023-07-31T08:16:40;99132.31;;;17.74;100.00
25722;BME280;13578;53.450;15.496;2023-07-31T08:19:40;99134.66;;;17.99;100.00
25722;BME280;13578;53.450;15.496;2023-07-31T08:22:41;99129.66;;;18.22;100.00
25722;BME280;13578;53.450;15.496;2023-07-31T08:25:42;99122.84;;;18.25;100.00
25722;BME280;13578;53.450;15.496;2023-07-31T08:28:42;99119.50;;;18.43;100.00
25722;BME280;13578;53.450;15.496;2023-07-31T08:31:43;99113.50;;;18.33;100.00
25722;BME280;13578;53.450;15.496;2023-07-31T08:34:44;99111.16;;;18.36;100.00
25722;BME280;13578;53.450;15.496;2023-07-31T08:37:44;99102.03;;;18.49;100.00
25722;BME280;13578;53.450;15.496;2023-07-31T08:40:45;99101.16;;;18.49;100.00
25722;BME280;13578;53.450;15.496;2023-07-31T08:43:46;99095.66;;;18.62;100.00
25722;BME280;13578;53.450;15.496;2023-07-31T08:46:48;99107.25;;;18.72;100.00
25722;BME280;13578;53.450;15.496;2023-07-31T08:49:51;99098.13;;;18.85;100.00
25722;BME280;13578;53.450;15.496;2023-07-31T08:52:53;99107.38;;;19.06;100.00
25722;BME280;13578;53.450;15.496;2023-07-31T08:55:54;99097.94;;;19.00;100.00
25722;BME280;13578;53.450;15.496;2023-07-31T08:58:57;99094.94;;;19.02;100.00
25722;BME280;13578;53.450;15.496;2023-07-31T09:02:05;99081.06;;;19.02;100.00
25722;BME280;13578;53.450;15.496;2023-07-31T09:05:06;99080.88;;;19.03;100.00
25722;BME280;13578;53.450;15.496;2023-07-31T09:08:09;99088.13;;;18.98;100.00
25722;BME280;13578;53.450;15.496;2023-07-31T09:11:11;99086.84;;;19.07;100.00
25722;BME280;13578;53.450;15.496;2023-07-31T09:14:13;99085.81;;;19.22;100.00
25722;BME280;13578;53.450;15.496;2023-07-31T09:17:14;99080.69;;;19.45;100.00
25722;BME280;13578;53.450;15.496;2023-07-31T09:23:16;99077.06;;;19.38;100.00
25722;BME280;13578;53.450;15.496;2023-07-31T09:26:34;99068.72;;;19.38;100.00
25722;BME280;13578;53.450;15.496;2023-07-31T09:29:34;99056.06;;;19.42;100.00
25722;BME280;13578;53.450;15.496;2023-07-31T09:32:35;99064.22;;;19.37;100.00
25722;BME280;13578;53.450;15.496;2023-07-31T09:35:36;99066.78;;;19.45;100.00
25722;BME280;13578;53.450;15.496;2023-07-31T09:38:44;99065.28;;;19.36;100.00
25722;BME280;13578;53.450;15.496;2023-07-31T09:41:48;99069.72;;;19.10;100.00
25722;BME280;13578;53.450;15.496;2023-07-31T09:44:53;99070.47;;;18.64;100.00
25722;BME280;13578;53.450;15.496;2023-07-31T09:47:55;99072.84;;;18.18;100.00
25722;BME280;13578;53.450;15.496;2023-07-31T09:50:55;99058.78;;;17.91;100.00
25722;BME280;13578;53.450;15.496;2023-07-31T09:53:56;99050.81;;;17.82;100.00
25722;BME280;13578;53.450;15.496;2023-07-31T09:56:58;99049.56;;;17.84;100.00
25722;BME280;13578;53.450;15.496;2023-07-31T10:00:00;99034.75;;;17.99;100.00
25722;BME280;13578;53.450;15.496;2023-07-31T10:03:04;99047.84;;;18.18;100.00
25722;BME280;13578;53.450;15.496;2023-07-31T10:06:06;99036.13;;;18.23;100.00
25722;BME280;13578;53.450;15.496;2023-07-31T10:09:11;99043.03;;;18.40;100.00
25722;BME280;13578;53.450;15.496;2023-07-31T10:12:19;99036.69;;;18.67;100.00
25722;BME280;13578;53.450;15.496;2023-07-31T10:15:20;99049.13;;;18.91;100.00
25722;BME280;13578;53.450;15.496;2023-07-31T10:18:21;99043.88;;;19.16;100.00
25722;BME280;13578;53.450;15.496;2023-07-31T10:21:21;99046.88;;;19.35;100.00
25722;BME280;13578;53.450;15.496;2023-07-31T10:24:23;99043.22;;;19.28;100.00
25722;BME280;13578;53.450;15.496;2023-07-31T10:27:25;99042.78;;;19.38;100.00
25722;BME280;13578;53.450;15.496;2023-07-31T10:30:28;99034.41;;;19.64;100.00
25722;BME280;13578;53.450;15.496;2023-07-31T10:33:30;99034.19;;;19.79;100.00
25722;BME280;13578;53.450;15.496;2023-07-31T10:36:31;99018.75;;;19.83;100.00
25722;BME280;13578;53.450;15.496;2023-07-31T10:39:36;99015.75;;;19.98;100.00
25722;BME280;13578;53.450;15.496;2023-07-31T10:42:52;99018.50;;;20.12;100.00
25722;BME280;13578;53.450;15.496;2023-07-31T10:45:53;99015.13;;;19.96;100.00
25722;BME280;13578;53.450;15.496;2023-07-31T10:49:03;99022.19;;;19.99;100.00
25722;BME280;13578;53.450;15.496;2023-07-31T10:52:03;99012.31;;;20.03;100.00
25722;BME280;13578;53.450;15.496;2023-07-31T10:58:27;99016.31;;;20.73;100.00
25722;BME280;13578;53.450;15.496;2023-07-31T11:01:51;99008.00;;;20.98;100.00
25722;BME280;13578;53.450;15.496;2023-07-31T11:05:11;99006.81;;;21.13;100.00
25722;BME280;13578;53.450;15.496;2023-07-31T11:08:23;99011.06;;;21.15;100.00
25722;BME280;13578;53.450;15.496;2023-07-31T11:11:23;98993.13;;;20.72;100.00
25722;BME280;13578;53.450;15.496;2023-07-31T11:14:24;99005.41;;;20.58;100.00
25722;BME280;13578;53.450;15.496;2023-07-31T11:17:26;98986.13;;;20.63;100.00
25722;BME280;13578;53.450;15.496;2023-07-31T11:20:27;98997.06;;;20.58;100.00
25722;BME280;13578;53.450;15.496;2023-07-31T11:23:30;99001.81;;;20.51;100.00
25722;BME280;13578;53.450;15.496;2023-07-31T11:26:31;98989.59;;;20.06;100.00
25722;BME280;13578;53.450;15.496;2023-07-31T11:29:32;98996.22;;;20.12;100.00
25722;BME280;13578;53.450;15.496;2023-07-31T11:32:32;98986.03;;;20.38;100.00
25722;BME280;13578;53.450;15.496;2023-07-31T11:35:35;98992.84;;;20.49;100.00
25722;BME280;13578;53.450;15.496;2023-07-31T11:38:35;98983.84;;;20.46;100.00
25722;BME280;13578;53.450;15.496;2023-07-31T11:41:36;98983.94;;;20.26;100.00
25722;BME280;13578;53.450;15.496;2023-07-31T11:44:40;98999.00;;;20.19;100.00
25722;BME280;13578;53.450;15.496;2023-07-31T11:47:48;98988.72;;;20.12;100.00
25722;BME280;13578;53.450;15.496;2023-07-31T11:50:50;98977.88;;;19.91;100.00
25722;BME280;13578;53.450;15.496;2023-07-31T11:53:53;98976.75;;;20.05;100.00
25722;BME280;13578;53.450;15.496;2023-07-31T11:56:56;98971.16;;;20.05;100.00
25722;BME280;13578;53.450;15.496;2023-07-31T11:59:58;98969.91;;;20.08;100.00
25722;BME280;13578;53.450;15.496;2023-07-31T12:02:59;98962.69;;;19.93;100.00
25722;BME280;13578;53.450;15.496;2023-07-31T12:06:00;98964.41;;;19.74;100.00
25722;BME280;13578;53.450;15.496;2023-07-31T12:09:04;98966.09;;;19.75;100.00
25722;BME280;13578;53.450;15.496;2023-07-31T12:12:08;98962.69;;;19.73;100.00
25722;BME280;13578;53.450;15.496;2023-07-31T12:15:15;98959.25;;;19.91;100.00
25722;BME280;13578;53.450;15.496;2023-07-31T12:18:19;98959.19;;;20.11;100.00
25722;BME280;13578;53.450;15.496;2023-07-31T12:21:20;98944.69;;;20.35;100.00
25722;BME280;13578;53.450;15.496;2023-07-31T12:24:21;98937.38;;;20.40;100.00
25722;BME280;13578;53.450;15.496;2023-07-31T12:27:22;98946.84;;;20.33;100.00
25722;BME280;13578;53.450;15.496;2023-07-31T12:30:32;98949.69;;;20.26;100.00
25722;BME280;13578;53.450;15.496;2023-07-31T12:33:35;98942.72;;;20.03;100.00
25722;BME280;13578;53.450;15.496;2023-07-31T12:36:37;98941.41;;;20.06;100.00
25722;BME280;13578;53.450;15.496;2023-07-31T12:39:39;98933.31;;;19.97;100.00
25722;BME280;13578;53.450;15.496;2023-07-31T12:42:41;98932.00;;;20.00;100.00
25722;BME280;13578;53.450;15.496;2023-07-31T12:45:42;98926.59;;;20.12;100.00
25722;BME280;13578;53.450;15.496;2023-07-31T12:48:42;98921.81;;;20.26;100.00
25722;BME280;13578;53.450;15.496;2023-07-31T12:51:43;98913.75;;;20.11;100.00
25722;BME280;13578;53.450;15.496;2023-07-31T12:54:43;98917.25;;;19.99;100.00
25722;BME280;13578;53.450;15.496;2023-07-31T12:57:44;98913.22;;;19.89;100.00
25722;BME280;13578;53.450;15.496;2023-07-31T13:00:45;98903.81;;;19.76;100.00
25722;BME280;13578;53.450;15.496;2023-07-31T13:03:45;98904.25;;;19.73;100.00
25722;BME280;13578;53.450;15.496;2023-07-31T13:06:46;98909.41;;;19.63;100.00
25722;BME280;13578;53.450;15.496;2023-07-31T13:09:46;98902.34;;;19.67;100.00
25722;BME280;13578;53.450;15.496;2023-07-31T13:12:47;98909.22;;;19.58;100.00
25722;BME280;13578;53.450;15.496;2023-07-31T13:15:48;98927.31;;;19.08;100.00
25722;BME280;13578;53.450;15.496;2023-07-31T13:18:48;98911.38;;;18.21;100.00
25722;BME280;13578;53.450;15.496;2023-07-31T13:21:49;98883.78;;;18.06;100.00
25722;BME280;13578;53.450;15.496;2023-07-31T13:24:49;98868.47;;;18.24;100.00
25722;BME280;13578;53.450;15.496;2023-07-31T13:27:50;98870.81;;;18.34;100.00
25722;BME280;13578;53.450;15.496;2023-07-31T13:30:51;98866.78;;;18.50;100.00
25722;BME280;13578;53.450;15.496;2023-07-31T13:33:51;98861.84;;;18.58;100.00
25722;BME280;13578;53.450;15.496;2023-07-31T13:36:54;98858.22;;;18.58;100.00
25722;BME280;13578;53.450;15.496;2023-07-31T13:39:55;98849.66;;;18.60;100.00
25722;BME280;13578;53.450;15.496;2023-07-31T13:42:55;98852.44;;;18.60;100.00
25722;BME280;13578;53.450;15.496;2023-07-31T13:45:56;98852.66;;;18.51;100.00
25722;BME280;13578;53.450;15.496;2023-07-31T13:48:57;98844.31;;;18.38;100.00
25722;BME280;13578;53.450;15.496;2023-07-31T13:51:57;98845.59;;;18.15;100.00
25722;BME280;13578;53.450;15.496;2023-07-31T13:54:58;98848.78;;;18.12;100.00
25722;BME280;13578;53.450;15.496;2023-07-31T13:57:59;98825.09;;;18.16;100.00
25722;BME280;13578;53.450;15.496;2023-07-31T14:00:59;98816.13;;;18.21;100.00
25722;BME280;13578;53.450;15.496;2023-07-31T14:04:00;98806.94;;;18.27;100.00
25722;BME280;13578;53.450;15.496;2023-07-31T14:07:01;98794.78;;;18.35;100.00
25722;BME280;13578;53.450;15.496;2023-07-31T14:10:01;98800.31;;;18.55;100.00
25722;BME280;13578;53.450;15.496;2023-07-31T14:13:04;98793.69;;;18.63;100.00
25722;BME280;13578;53.450;15.496;2023-07-31T14:16:04;98796.03;;;18.52;100.00
25722;BME280;13578;53.450;15.496;2023-07-31T14:19:05;98789.63;;;18.58;100.00
25722;BME280;13578;53.450;15.496;2023-07-31T14:22:07;98794.09;;;18.73;100.00
25722;BME280;13578;53.450;15.496;2023-07-31T14:25:08;98804.56;;;18.84;100.00
25722;BME280;13578;53.450;15.496;2023-07-31T14:28:10;98826.38;;;18.74;100.00
25722;BME280;13578;53.450;15.496;2023-07-31T14:31:11;98822.97;;;18.72;100.00
25722;BME280;13578;53.450;15.496;2023-07-31T14:34:12;98819.72;;;18.88;100.00
25722;BME280;13578;53.450;15.496;2023-07-31T14:37:12;98823.59;;;18.94;100.00
25722;BME280;13578;53.450;15.496;2023-07-31T14:40:13;98828.09;;;18.95;100.00
25722;BME280;13578;53.450;15.496;2023-07-31T14:43:14;98816.94;;;18.88;100.00
25722;BME280;13578;53.450;15.496;2023-07-31T14:46:14;98817.41;;;18.99;100.00
25722;BME280;13578;53.450;15.496;2023-07-31T14:49:15;98798.53;;;19.08;100.00
25722;BME280;13578;53.450;15.496;2023-07-31T14:52:16;98798.72;;;19.19;100.00
25722;BME280;13578;53.450;15.496;2023-07-31T14:55:18;98815.81;;;19.30;100.00
25722;BME280;13578;53.450;15.496;2023-07-31T14:58:19;98817.66;;;19.49;100.00
25722;BME280;13578;53.450;15.496;2023-07-31T15:01:20;98823.41;;;19.55;100.00
25722;BME280;13578;53.450;15.496;2023-07-31T15:04:20;98828.16;;;19.47;100.00
25722;BME280;13578;53.450;15.496;2023-07-31T15:07:22;98815.94;;;19.48;100.00
25722;BME280;13578;53.450;15.496;2023-07-31T15:10:22;98821.97;;;19.45;100.00
25722;BME280;13578;53.450;15.496;2023-07-31T15:13:24;98823.28;;;19.36;100.00
25722;BME280;13578;53.450;15.496;2023-07-31T15:16:25;98815.22;;;19.14;100.00
25722;BME280;13578;53.450;15.496;2023-07-31T15:19:25;98819.09;;;18.93;100.00
25722;BME280;13578;53.450;15.496;2023-07-31T15:22:26;98832.34;;;18.84;100.00
25722;BME280;13578;53.450;15.496;2023-07-31T15:25:27;98814.84;;;18.64;100.00
25722;BME280;13578;53.450;15.496;2023-07-31T15:28:27;98798.63;;;18.54;100.00
25722;BME280;13578;53.450;15.496;2023-07-31T15:31:28;98794.97;;;18.53;100.00
25722;BME280;13578;53.450;15.496;2023-07-31T15:34:28;98775.72;;;18.72;100.00
25722;BME280;13578;53.450;15.496;2023-07-31T15:37:29;98763.94;;;18.90;100.00
25722;BME280;13578;53.450;15.496;2023-07-31T15:40:30;98765.66;;;18.98;100.00
25722;BME280;13578;53.450;15.496;2023-07-31T15:43:30;98772.91;;;18.99;100.00